Portada
METAR-TAF:

METAR-TAF

Aeroports :

Chiclayo, Perú

latitud: 06-47S, longitud: 079-50W, altitud: 29 m

Observació

L'informe es va fer fa 57 minuts, a les 12:00 UTC
Vent 8 kt del Sud
Temperatura 18°C
Humitat 77%
Pressió 1014 hPa
Visibilitat 10 km o més
sense núvols per sota de 1500 mi sense presència de cumulonimbus.

METAR: SPHI 021200Z 18008KT CAVOK 18/14 Q1014 RMK BIRD HAZARD RWY 19/01 TN16.8 PP000

Hora: 07:57 (12:57 UTC)

Pronòstic

L'informe es va fer fa 1 hora i 57 minuts, a les 11:00 UTC
Pronòstic vàlid del 02 a les 12 UTC al 03 a les 12 UTC
Vent 8 kt del Sud
Visibilitat 10 km o més
sense núvols per sota de 1500 mi sense presència de cumulonimbus.
Evolucionant progressivament
l' 02 a les 14 UTC al 02 a les 16 UTC
Vent 12 kt del Sud/Sud-Oest
Temporalment
l' 02 a les 21 UTC al 03 a les 01 UTC
Vent 22 kt del Sud

TAF: SPHI 021100Z 0212/0312 18008KT CAVOK TX23/0219Z TN15/0311Z BECMG 0214/0216 20012KT TEMPO 0221/0301 19022KT

Observacions i pronòstics meteorològics de més de 4000 aeroports (METAR i TAF).

Les estacions disponibles són els punts grocs i vermells al mapa.

Posi el ratolí al punt desitjat per veure el nom de l'estació.

Feu clic per veure les observacions i els pronòstics meteorològics.

Per canviar el mapa: feu clic els botons verds amb una creu de color negre per apropar; al botó verd amb un guió per allunyar la imatge; o en les fletxes verdes per a mapes adjacents.


METAR-TAF: